sensor_id;sensor_type;location;lat;lon;timestamp;P1;durP1;ratioP1;P2;durP2;ratioP2
76136;SDS011;68622;53.128;17.966;2023-06-19T00:01:00;17.00;;;11.90;;
76136;SDS011;68622;53.128;17.966;2023-06-19T00:03:36;18.80;;;12.40;;
76136;SDS011;68622;53.128;17.966;2023-06-19T00:06:03;16.80;;;11.40;;
76136;SDS011;68622;53.128;17.966;2023-06-19T00:08:29;16.90;;;11.60;;
76136;SDS011;68622;53.128;17.966;2023-06-19T00:10:56;18.10;;;12.50;;
76136;SDS011;68622;53.128;17.966;2023-06-19T00:13:23;18.20;;;12.20;;
76136;SDS011;68622;53.128;17.966;2023-06-19T00:15:50;16.50;;;11.40;;
76136;SDS011;68622;53.128;17.966;2023-06-19T00:18:17;16.90;;;11.50;;
76136;SDS011;68622;53.128;17.966;2023-06-19T00:20:46;16.60;;;11.60;;
76136;SDS011;68622;53.128;17.966;2023-06-19T00:23:12;16.50;;;11.20;;
76136;SDS011;68622;53.128;17.966;2023-06-19T00:25:40;16.60;;;11.70;;
76136;SDS011;68622;53.128;17.966;2023-06-19T00:28:09;18.10;;;12.00;;
76136;SDS011;68622;53.128;17.966;2023-06-19T00:30:39;16.70;;;11.50;;
76136;SDS011;68622;53.128;17.966;2023-06-19T00:33:06;19.80;;;12.00;;
76136;SDS011;68622;53.128;17.966;2023-06-19T00:35:33;17.60;;;12.60;;
76136;SDS011;68622;53.128;17.966;2023-06-19T00:38:00;17.80;;;12.20;;
76136;SDS011;68622;53.128;17.966;2023-06-19T00:42:57;18.10;;;12.40;;
76136;SDS011;68622;53.128;17.966;2023-06-19T00:45:25;17.00;;;12.10;;
76136;SDS011;68622;53.128;17.966;2023-06-19T00:47:53;17.20;;;12.60;;
76136;SDS011;68622;53.128;17.966;2023-06-19T00:50:21;18.10;;;12.50;;
76136;SDS011;68622;53.128;17.966;2023-06-19T00:52:48;20.20;;;12.70;;
76136;SDS011;68622;53.128;17.966;2023-06-19T00:55:16;19.00;;;13.30;;
76136;SDS011;68622;53.128;17.966;2023-06-19T00:57:44;20.40;;;14.00;;
76136;SDS011;68622;53.128;17.966;2023-06-19T01:00:12;17.60;;;12.70;;
76136;SDS011;68622;53.128;17.966;2023-06-19T01:02:39;18.50;;;12.20;;
76136;SDS011;68622;53.128;17.966;2023-06-19T01:05:07;22.10;;;13.50;;
76136;SDS011;68622;53.128;17.966;2023-06-19T01:08:17;22.90;;;13.60;;
76136;SDS011;68622;53.128;17.966;2023-06-19T01:10:28;20.50;;;14.30;;
76136;SDS011;68622;53.128;17.966;2023-06-19T01:13:02;19.80;;;13.80;;
76136;SDS011;68622;53.128;17.966;2023-06-19T01:15:32;19.30;;;13.40;;
76136;SDS011;68622;53.128;17.966;2023-06-19T01:18:01;23.40;;;14.80;;
76136;SDS011;68622;53.128;17.966;2023-06-19T01:20:28;23.00;;;14.80;;
76136;SDS011;68622;53.128;17.966;2023-06-19T01:22:57;21.10;;;15.50;;
76136;SDS011;68622;53.128;17.966;2023-06-19T01:25:31;20.80;;;13.20;;
76136;SDS011;68622;53.128;17.966;2023-06-19T01:27:57;19.60;;;14.00;;
76136;SDS011;68622;53.128;17.966;2023-06-19T01:30:26;22.40;;;14.30;;
76136;SDS011;68622;53.128;17.966;2023-06-19T01:32:53;18.80;;;13.50;;
76136;SDS011;68622;53.128;17.966;2023-06-19T01:35:27;19.30;;;13.50;;
76136;SDS011;68622;53.128;17.966;2023-06-19T01:37:55;18.40;;;13.00;;
76136;SDS011;68622;53.128;17.966;2023-06-19T01:40:23;22.50;;;14.50;;
76136;SDS011;68622;53.128;17.966;2023-06-19T01:42:54;19.50;;;13.30;;
76136;SDS011;68622;53.128;17.966;2023-06-19T01:45:23;18.30;;;12.70;;
76136;SDS011;68622;53.128;17.966;2023-06-19T01:47:49;18.00;;;12.30;;
76136;SDS011;68622;53.128;17.966;2023-06-19T01:50:16;20.30;;;13.40;;
76136;SDS011;68622;53.128;17.966;2023-06-19T01:52:44;19.60;;;13.90;;
76136;SDS011;68622;53.128;17.966;2023-06-19T01:55:12;19.60;;;13.40;;
76136;SDS011;68622;53.128;17.966;2023-06-19T01:57:40;20.40;;;13.80;;
76136;SDS011;68622;53.128;17.966;2023-06-19T02:00:07;21.20;;;14.60;;
76136;SDS011;68622;53.128;17.966;2023-06-19T02:02:40;27.80;;;15.50;;
76136;SDS011;68622;53.128;17.966;2023-06-19T02:05:07;21.40;;;14.30;;
76136;SDS011;68622;53.128;17.966;2023-06-19T02:07:33;19.30;;;14.00;;
76136;SDS011;68622;53.128;17.966;2023-06-19T02:10:00;22.30;;;14.20;;
76136;SDS011;68622;53.128;17.966;2023-06-19T02:12:27;22.70;;;14.10;;
76136;SDS011;68622;53.128;17.966;2023-06-19T02:14:55;20.60;;;14.40;;
76136;SDS011;68622;53.128;17.966;2023-06-19T02:17:22;20.80;;;14.20;;
76136;SDS011;68622;53.128;17.966;2023-06-19T02:19:48;21.30;;;14.10;;
76136;SDS011;68622;53.128;17.966;2023-06-19T02:22:17;23.60;;;14.80;;
76136;SDS011;68622;53.128;17.966;2023-06-19T02:24:44;19.20;;;13.80;;
76136;SDS011;68622;53.128;17.966;2023-06-19T02:27:12;21.50;;;14.80;;
76136;SDS011;68622;53.128;17.966;2023-06-19T02:29:38;21.10;;;14.60;;
76136;SDS011;68622;53.128;17.966;2023-06-19T02:32:05;19.10;;;13.00;;
76136;SDS011;68622;53.128;17.966;2023-06-19T02:34:34;18.10;;;13.10;;
76136;SDS011;68622;53.128;17.966;2023-06-19T02:37:01;22.50;;;14.60;;
76136;SDS011;68622;53.128;17.966;2023-06-19T02:39:27;19.70;;;13.80;;
76136;SDS011;68622;53.128;17.966;2023-06-19T02:41:55;19.90;;;13.80;;
76136;SDS011;68622;53.128;17.966;2023-06-19T02:44:22;23.20;;;13.60;;
76136;SDS011;68622;53.128;17.966;2023-06-19T02:46:48;22.80;;;14.60;;
76136;SDS011;68622;53.128;17.966;2023-06-19T02:49:16;22.10;;;14.30;;
76136;SDS011;68622;53.128;17.966;2023-06-19T02:51:43;28.90;;;14.70;;
76136;SDS011;68622;53.128;17.966;2023-06-19T02:54:09;21.30;;;13.90;;
76136;SDS011;68622;53.128;17.966;2023-06-19T02:56:37;21.90;;;15.10;;
76136;SDS011;68622;53.128;17.966;2023-06-19T02:59:05;20.00;;;14.20;;
76136;SDS011;68622;53.128;17.966;2023-06-19T03:01:31;24.40;;;13.70;;
76136;SDS011;68622;53.128;17.966;2023-06-19T03:03:58;23.00;;;14.70;;
76136;SDS011;68622;53.128;17.966;2023-06-19T03:06:25;23.00;;;15.10;;
76136;SDS011;68622;53.128;17.966;2023-06-19T03:08:52;23.80;;;15.10;;
76136;SDS011;68622;53.128;17.966;2023-06-19T03:11:19;25.90;;;15.10;;
76136;SDS011;68622;53.128;17.966;2023-06-19T03:13:50;18.30;;;13.30;;
76136;SDS011;68622;53.128;17.966;2023-06-19T03:16:18;22.20;;;14.50;;
76136;SDS011;68622;53.128;17.966;2023-06-19T03:18:45;21.60;;;13.80;;
76136;SDS011;68622;53.128;17.966;2023-06-19T03:21:13;29.20;;;16.40;;
76136;SDS011;68622;53.128;17.966;2023-06-19T03:23:42;22.50;;;14.80;;
76136;SDS011;68622;53.128;17.966;2023-06-19T03:26:09;26.10;;;15.70;;
76136;SDS011;68622;53.128;17.966;2023-06-19T03:28:37;22.50;;;14.50;;
76136;SDS011;68622;53.128;17.966;2023-06-19T03:31:05;23.60;;;15.30;;
76136;SDS011;68622;53.128;17.966;2023-06-19T03:33:32;24.10;;;16.10;;
76136;SDS011;68622;53.128;17.966;2023-06-19T03:35:58;24.50;;;14.10;;
76136;SDS011;68622;53.128;17.966;2023-06-19T03:38:48;24.60;;;15.40;;
76136;SDS011;68622;53.128;17.966;2023-06-19T03:41:16;24.30;;;15.50;;
76136;SDS011;68622;53.128;17.966;2023-06-19T03:43:42;23.70;;;14.80;;
76136;SDS011;68622;53.128;17.966;2023-06-19T03:46:09;22.50;;;14.80;;
76136;SDS011;68622;53.128;17.966;2023-06-19T03:48:36;20.60;;;13.30;;
76136;SDS011;68622;53.128;17.966;2023-06-19T03:51:02;22.40;;;14.80;;
76136;SDS011;68622;53.128;17.966;2023-06-19T03:53:29;20.60;;;14.40;;
76136;SDS011;68622;53.128;17.966;2023-06-19T03:55:56;21.90;;;13.30;;
76136;SDS011;68622;53.128;17.966;2023-06-19T03:58:23;24.50;;;14.40;;
76136;SDS011;68622;53.128;17.966;2023-06-19T04:00:49;19.00;;;13.80;;
76136;SDS011;68622;53.128;17.966;2023-06-19T04:03:18;19.90;;;13.10;;
76136;SDS011;68622;53.128;17.966;2023-06-19T04:05:45;19.70;;;13.60;;
76136;SDS011;68622;53.128;17.966;2023-06-19T04:08:12;19.80;;;14.00;;
76136;SDS011;68622;53.128;17.966;2023-06-19T04:10:43;22.00;;;15.50;;
76136;SDS011;68622;53.128;17.966;2023-06-19T04:13:10;21.40;;;14.10;;
76136;SDS011;68622;53.128;17.966;2023-06-19T04:15:36;20.80;;;15.00;;
76136;SDS011;68622;53.128;17.966;2023-06-19T04:18:03;20.30;;;14.70;;
76136;SDS011;68622;53.128;17.966;2023-06-19T04:20:30;20.80;;;16.40;;
76136;SDS011;68622;53.128;17.966;2023-06-19T04:22:57;21.30;;;15.80;;
76136;SDS011;68622;53.128;17.966;2023-06-19T04:25:23;22.00;;;17.40;;
76136;SDS011;68622;53.128;17.966;2023-06-19T04:27:50;25.90;;;18.80;;
76136;SDS011;68622;53.128;17.966;2023-06-19T04:30:16;22.80;;;16.80;;
76136;SDS011;68622;53.128;17.966;2023-06-19T04:32:43;25.60;;;17.90;;
76136;SDS011;68622;53.128;17.966;2023-06-19T04:35:10;24.50;;;18.20;;
76136;SDS011;68622;53.128;17.966;2023-06-19T04:37:36;23.10;;;16.90;;
76136;SDS011;68622;53.128;17.966;2023-06-19T04:40:03;22.40;;;17.60;;
76136;SDS011;68622;53.128;17.966;2023-06-19T04:42:30;43.20;;;26.00;;
76136;SDS011;68622;53.128;17.966;2023-06-19T04:44:57;24.90;;;17.60;;
76136;SDS011;68622;53.128;17.966;2023-06-19T04:47:25;23.90;;;17.20;;
76136;SDS011;68622;53.128;17.966;2023-06-19T04:49:52;24.80;;;17.20;;
76136;SDS011;68622;53.128;17.966;2023-06-19T04:52:19;21.60;;;16.60;;
76136;SDS011;68622;53.128;17.966;2023-06-19T04:54:45;26.00;;;19.30;;
76136;SDS011;68622;53.128;17.966;2023-06-19T04:57:14;24.50;;;17.80;;
76136;SDS011;68622;53.128;17.966;2023-06-19T04:59:42;23.70;;;18.00;;
76136;SDS011;68622;53.128;17.966;2023-06-19T05:02:12;24.80;;;17.30;;
76136;SDS011;68622;53.128;17.966;2023-06-19T05:04:39;23.80;;;18.60;;
76136;SDS011;68622;53.128;17.966;2023-06-19T05:07:09;27.30;;;19.40;;
76136;SDS011;68622;53.128;17.966;2023-06-19T05:09:42;24.10;;;18.00;;
76136;SDS011;68622;53.128;17.966;2023-06-19T05:12:09;25.10;;;19.70;;
76136;SDS011;68622;53.128;17.966;2023-06-19T05:14:36;28.60;;;20.30;;
76136;SDS011;68622;53.128;17.966;2023-06-19T05:17:02;28.30;;;19.50;;
76136;SDS011;68622;53.128;17.966;2023-06-19T05:19:29;26.40;;;20.00;;
76136;SDS011;68622;53.128;17.966;2023-06-19T05:21:56;25.90;;;19.30;;
76136;SDS011;68622;53.128;17.966;2023-06-19T05:24:23;27.60;;;18.80;;
76136;SDS011;68622;53.128;17.966;2023-06-19T05:26:50;29.30;;;19.40;;
76136;SDS011;68622;53.128;17.966;2023-06-19T05:29:16;31.70;;;20.60;;
76136;SDS011;68622;53.128;17.966;2023-06-19T05:31:43;24.60;;;19.00;;
76136;SDS011;68622;53.128;17.966;2023-06-19T05:34:10;29.10;;;20.30;;
76136;SDS011;68622;53.128;17.966;2023-06-19T05:36:36;27.90;;;20.50;;
76136;SDS011;68622;53.128;17.966;2023-06-19T05:39:03;27.50;;;19.90;;
76136;SDS011;68622;53.128;17.966;2023-06-19T05:41:30;25.70;;;19.70;;
76136;SDS011;68622;53.128;17.966;2023-06-19T05:43:57;26.80;;;20.60;;
76136;SDS011;68622;53.128;17.966;2023-06-19T05:46:23;26.10;;;19.30;;
76136;SDS011;68622;53.128;17.966;2023-06-19T05:48:50;27.40;;;22.20;;
76136;SDS011;68622;53.128;17.966;2023-06-19T05:51:17;29.50;;;19.90;;
76136;SDS011;68622;53.128;17.966;2023-06-19T05:53:43;27.30;;;19.40;;
76136;SDS011;68622;53.128;17.966;2023-06-19T05:56:10;27.90;;;20.90;;
76136;SDS011;68622;53.128;17.966;2023-06-19T05:58:36;23.30;;;17.50;;
76136;SDS011;68622;53.128;17.966;2023-06-19T06:01:03;23.90;;;18.70;;
76136;SDS011;68622;53.128;17.966;2023-06-19T06:03:30;24.20;;;16.80;;
76136;SDS011;68622;53.128;17.966;2023-06-19T06:05:57;24.00;;;17.80;;
76136;SDS011;68622;53.128;17.966;2023-06-19T06:08:29;22.70;;;17.50;;
76136;SDS011;68622;53.128;17.966;2023-06-19T06:10:56;24.40;;;18.30;;
76136;SDS011;68622;53.128;17.966;2023-06-19T06:13:23;24.50;;;17.70;;
76136;SDS011;68622;53.128;17.966;2023-06-19T06:15:50;24.20;;;18.20;;
76136;SDS011;68622;53.128;17.966;2023-06-19T06:18:17;28.00;;;18.50;;
76136;SDS011;68622;53.128;17.966;2023-06-19T06:20:43;24.20;;;17.10;;
76136;SDS011;68622;53.128;17.966;2023-06-19T06:23:10;20.80;;;16.70;;
76136;SDS011;68622;53.128;17.966;2023-06-19T06:25:36;23.70;;;16.40;;
76136;SDS011;68622;53.128;17.966;2023-06-19T06:28:03;19.30;;;16.20;;
76136;SDS011;68622;53.128;17.966;2023-06-19T06:30:30;24.10;;;15.40;;
76136;SDS011;68622;53.128;17.966;2023-06-19T06:32:56;19.20;;;14.30;;
76136;SDS011;68622;53.128;17.966;2023-06-19T06:35:23;17.80;;;13.30;;
76136;SDS011;68622;53.128;17.966;2023-06-19T06:37:49;20.00;;;13.10;;
76136;SDS011;68622;53.128;17.966;2023-06-19T06:40:17;17.90;;;12.20;;
76136;SDS011;68622;53.128;17.966;2023-06-19T06:42:44;17.10;;;11.40;;
76136;SDS011;68622;53.128;17.966;2023-06-19T06:45:11;11.90;;;9.50;;
76136;SDS011;68622;53.128;17.966;2023-06-19T06:47:37;14.50;;;11.40;;
76136;SDS011;68622;53.128;17.966;2023-06-19T06:50:06;17.50;;;11.10;;
76136;SDS011;68622;53.128;17.966;2023-06-19T06:52:34;16.00;;;11.40;;
76136;SDS011;68622;53.128;17.966;2023-06-19T06:55:01;15.30;;;10.00;;
76136;SDS011;68622;53.128;17.966;2023-06-19T06:57:28;14.00;;;10.40;;
76136;SDS011;68622;53.128;17.966;2023-06-19T06:59:54;18.60;;;11.70;;
76136;SDS011;68622;53.128;17.966;2023-06-19T07:02:21;14.00;;;10.10;;
76136;SDS011;68622;53.128;17.966;2023-06-19T07:04:47;13.40;;;8.00;;
76136;SDS011;68622;53.128;17.966;2023-06-19T07:07:14;14.30;;;9.20;;
76136;SDS011;68622;53.128;17.966;2023-06-19T07:09:41;14.90;;;9.70;;
76136;SDS011;68622;53.128;17.966;2023-06-19T07:12:07;14.80;;;9.00;;
76136;SDS011;68622;53.128;17.966;2023-06-19T07:14:34;14.00;;;8.70;;
76136;SDS011;68622;53.128;17.966;2023-06-19T07:17:01;11.80;;;8.60;;
76136;SDS011;68622;53.128;17.966;2023-06-19T07:19:27;13.50;;;9.00;;
76136;SDS011;68622;53.128;17.966;2023-06-19T07:21:54;15.00;;;9.90;;
76136;SDS011;68622;53.128;17.966;2023-06-19T07:24:21;15.70;;;9.50;;
76136;SDS011;68622;53.128;17.966;2023-06-19T07:26:47;15.10;;;9.80;;
76136;SDS011;68622;53.128;17.966;2023-06-19T07:29:14;13.20;;;9.40;;
76136;SDS011;68622;53.128;17.966;2023-06-19T07:31:41;13.30;;;10.50;;
76136;SDS011;68622;53.128;17.966;2023-06-19T07:34:09;13.00;;;10.40;;
76136;SDS011;68622;53.128;17.966;2023-06-19T07:36:35;10.90;;;8.70;;
76136;SDS011;68622;53.128;17.966;2023-06-19T07:39:02;11.60;;;9.40;;
76136;SDS011;68622;53.128;17.966;2023-06-19T07:41:29;12.60;;;9.60;;
76136;SDS011;68622;53.128;17.966;2023-06-19T07:43:57;12.00;;;10.20;;
76136;SDS011;68622;53.128;17.966;2023-06-19T07:46:23;12.60;;;9.90;;
76136;SDS011;68622;53.128;17.966;2023-06-19T07:48:50;12.70;;;10.20;;
76136;SDS011;68622;53.128;17.966;2023-06-19T07:51:16;14.20;;;10.20;;
76136;SDS011;68622;53.128;17.966;2023-06-19T07:53:43;12.40;;;9.90;;
76136;SDS011;68622;53.128;17.966;2023-06-19T07:56:10;15.70;;;10.40;;
76136;SDS011;68622;53.128;17.966;2023-06-19T07:58:36;17.40;;;10.00;;
76136;SDS011;68622;53.128;17.966;2023-06-19T08:01:03;11.40;;;9.00;;
76136;SDS011;68622;53.128;17.966;2023-06-19T08:03:30;11.40;;;9.10;;
76136;SDS011;68622;53.128;17.966;2023-06-19T08:05:57;12.20;;;8.80;;
76136;SDS011;68622;53.128;17.966;2023-06-19T08:08:23;15.60;;;9.50;;
76136;SDS011;68622;53.128;17.966;2023-06-19T08:10:50;14.10;;;9.10;;
76136;SDS011;68622;53.128;17.966;2023-06-19T08:13:17;16.60;;;10.50;;
76136;SDS011;68622;53.128;17.966;2023-06-19T08:15:43;11.50;;;8.90;;
76136;SDS011;68622;53.128;17.966;2023-06-19T08:18:11;11.90;;;10.00;;
76136;SDS011;68622;53.128;17.966;2023-06-19T08:20:38;12.00;;;10.00;;
76136;SDS011;68622;53.128;17.966;2023-06-19T08:23:04;14.40;;;9.40;;
76136;SDS011;68622;53.128;17.966;2023-06-19T08:25:31;12.10;;;9.10;;
76136;SDS011;68622;53.128;17.966;2023-06-19T08:27:57;12.00;;;9.80;;
76136;SDS011;68622;53.128;17.966;2023-06-19T08:30:24;11.20;;;9.00;;
76136;SDS011;68622;53.128;17.966;2023-06-19T08:32:51;11.20;;;9.30;;
76136;SDS011;68622;53.128;17.966;2023-06-19T08:35:17;13.20;;;9.80;;
76136;SDS011;68622;53.128;17.966;2023-06-19T08:37:44;12.40;;;9.50;;
76136;SDS011;68622;53.128;17.966;2023-06-19T08:40:11;14.30;;;9.40;;
76136;SDS011;68622;53.128;17.966;2023-06-19T08:42:38;14.20;;;9.50;;
76136;SDS011;68622;53.128;17.966;2023-06-19T08:45:06;11.80;;;9.60;;
76136;SDS011;68622;53.128;17.966;2023-06-19T08:47:34;12.80;;;9.30;;
76136;SDS011;68622;53.128;17.966;2023-06-19T08:50:00;11.40;;;9.20;;
76136;SDS011;68622;53.128;17.966;2023-06-19T08:52:28;12.10;;;8.60;;
76136;SDS011;68622;53.128;17.966;2023-06-19T08:54:54;11.90;;;9.10;;
76136;SDS011;68622;53.128;17.966;2023-06-19T08:57:21;12.50;;;9.40;;
76136;SDS011;68622;53.128;17.966;2023-06-19T08:59:51;12.10;;;8.70;;
76136;SDS011;68622;53.128;17.966;2023-06-19T09:02:18;10.90;;;8.50;;
76136;SDS011;68622;53.128;17.966;2023-06-19T09:04:44;11.70;;;8.90;;
76136;SDS011;68622;53.128;17.966;2023-06-19T09:07:13;11.20;;;8.60;;
76136;SDS011;68622;53.128;17.966;2023-06-19T09:09:46;12.40;;;9.60;;
76136;SDS011;68622;53.128;17.966;2023-06-19T09:12:13;11.40;;;8.90;;
76136;SDS011;68622;53.128;17.966;2023-06-19T09:14:44;14.40;;;9.00;;
76136;SDS011;68622;53.128;17.966;2023-06-19T09:17:20;13.50;;;8.70;;
76136;SDS011;68622;53.128;17.966;2023-06-19T09:19:50;11.00;;;9.00;;
76136;SDS011;68622;53.128;17.966;2023-06-19T09:22:18;12.40;;;9.10;;
76136;SDS011;68622;53.128;17.966;2023-06-19T09:24:47;11.10;;;9.00;;
76136;SDS011;68622;53.128;17.966;2023-06-19T09:27:16;14.10;;;9.90;;
76136;SDS011;68622;53.128;17.966;2023-06-19T09:29:45;13.10;;;8.20;;
76136;SDS011;68622;53.128;17.966;2023-06-19T09:32:24;12.40;;;9.10;;
76136;SDS011;68622;53.128;17.966;2023-06-19T09:34:53;12.60;;;8.40;;
76136;SDS011;68622;53.128;17.966;2023-06-19T09:37:22;12.60;;;8.90;;
76136;SDS011;68622;53.128;17.966;2023-06-19T09:39:54;12.10;;;8.80;;
76136;SDS011;68622;53.128;17.966;2023-06-19T09:42:32;12.90;;;8.00;;
76136;SDS011;68622;53.128;17.966;2023-06-19T09:45:01;11.40;;;9.10;;
76136;SDS011;68622;53.128;17.966;2023-06-19T09:50:03;10.90;;;7.80;;
76136;SDS011;68622;53.128;17.966;2023-06-19T09:52:32;11.60;;;8.00;;
76136;SDS011;68622;53.128;17.966;2023-06-19T09:55:06;12.80;;;7.30;;
76136;SDS011;68622;53.128;17.966;2023-06-19T09:57:34;10.20;;;6.80;;
76136;SDS011;68622;53.128;17.966;2023-06-19T10:00:04;9.30;;;6.80;;
76136;SDS011;68622;53.128;17.966;2023-06-19T10:02:43;9.10;;;6.30;;
76136;SDS011;68622;53.128;17.966;2023-06-19T10:05:11;9.10;;;6.40;;
76136;SDS011;68622;53.128;17.966;2023-06-19T10:07:44;9.70;;;6.80;;
76136;SDS011;68622;53.128;17.966;2023-06-19T10:10:21;10.80;;;6.80;;
76136;SDS011;68622;53.128;17.966;2023-06-19T10:12:49;9.70;;;6.80;;
76136;SDS011;68622;53.128;17.966;2023-06-19T10:15:20;9.30;;;6.80;;
76136;SDS011;68622;53.128;17.966;2023-06-19T10:17:51;11.20;;;6.80;;
76136;SDS011;68622;53.128;17.966;2023-06-19T10:25:29;9.60;;;6.30;;
76136;SDS011;68622;53.128;17.966;2023-06-19T10:28:02;10.70;;;6.30;;
76136;SDS011;68622;53.128;17.966;2023-06-19T10:30:32;11.20;;;6.90;;
76136;SDS011;68622;53.128;17.966;2023-06-19T10:33:00;9.20;;;6.90;;
76136;SDS011;68622;53.128;17.966;2023-06-19T10:35:37;9.80;;;6.10;;
76136;SDS011;68622;53.128;17.966;2023-06-19T10:38:06;9.10;;;6.40;;
76136;SDS011;68622;53.128;17.966;2023-06-19T10:40:35;11.40;;;8.40;;
76136;SDS011;68622;53.128;17.966;2023-06-19T10:43:03;17.20;;;7.20;;
76136;SDS011;68622;53.128;17.966;2023-06-19T10:45:30;10.20;;;7.10;;
76136;SDS011;68622;53.128;17.966;2023-06-19T10:47:57;10.20;;;7.30;;
76136;SDS011;68622;53.128;17.966;2023-06-19T10:50:27;10.40;;;8.00;;
76136;SDS011;68622;53.128;17.966;2023-06-19T10:52:54;10.00;;;7.10;;
76136;SDS011;68622;53.128;17.966;2023-06-19T10:55:21;9.40;;;6.70;;
76136;SDS011;68622;53.128;17.966;2023-06-19T10:57:48;10.70;;;6.50;;
76136;SDS011;68622;53.128;17.966;2023-06-19T11:00:23;9.70;;;6.30;;
76136;SDS011;68622;53.128;17.966;2023-06-19T11:02:50;10.00;;;6.90;;
76136;SDS011;68622;53.128;17.966;2023-06-19T11:05:19;9.00;;;6.70;;
76136;SDS011;68622;53.128;17.966;2023-06-19T11:07:57;11.10;;;7.30;;
76136;SDS011;68622;53.128;17.966;2023-06-19T11:10:27;11.10;;;7.20;;
76136;SDS011;68622;53.128;17.966;2023-06-19T11:12:56;11.60;;;7.20;;
76136;SDS011;68622;53.128;17.966;2023-06-19T11:15:30;11.10;;;7.00;;
76136;SDS011;68622;53.128;17.966;2023-06-19T11:17:58;9.30;;;6.50;;
76136;SDS011;68622;53.128;17.966;2023-06-19T11:20:27;11.50;;;7.40;;
76136;SDS011;68622;53.128;17.966;2023-06-19T11:22:58;10.90;;;6.30;;
76136;SDS011;68622;53.128;17.966;2023-06-19T11:25:38;9.10;;;6.80;;
76136;SDS011;68622;53.128;17.966;2023-06-19T11:28:16;9.60;;;7.20;;
76136;SDS011;68622;53.128;17.966;2023-06-19T11:30:57;9.10;;;7.10;;
76136;SDS011;68622;53.128;17.966;2023-06-19T11:33:25;10.20;;;6.80;;
76136;SDS011;68622;53.128;17.966;2023-06-19T11:35:52;9.00;;;6.50;;
76136;SDS011;68622;53.128;17.966;2023-06-19T11:38:23;11.30;;;6.80;;
76136;SDS011;68622;53.128;17.966;2023-06-19T11:40:52;9.80;;;6.70;;
76136;SDS011;68622;53.128;17.966;2023-06-19T11:43:27;11.80;;;7.30;;
76136;SDS011;68622;53.128;17.966;2023-06-19T11:46:05;9.30;;;7.50;;
76136;SDS011;68622;53.128;17.966;2023-06-19T11:48:32;10.00;;;7.20;;
76136;SDS011;68622;53.128;17.966;2023-06-19T11:51:03;13.60;;;7.00;;
76136;SDS011;68622;53.128;17.966;2023-06-19T11:53:30;11.10;;;7.70;;
76136;SDS011;68622;53.128;17.966;2023-06-19T11:55:57;14.10;;;7.40;;
76136;SDS011;68622;53.128;17.966;2023-06-19T11:58:23;11.00;;;7.90;;
76136;SDS011;68622;53.128;17.966;2023-06-19T12:00:50;10.40;;;7.30;;
76136;SDS011;68622;53.128;17.966;2023-06-19T12:03:16;9.90;;;7.70;;
76136;SDS011;68622;53.128;17.966;2023-06-19T12:05:43;11.50;;;6.50;;
76136;SDS011;68622;53.128;17.966;2023-06-19T12:08:10;10.70;;;7.80;;
76136;SDS011;68622;53.128;17.966;2023-06-19T12:10:36;11.00;;;8.10;;
76136;SDS011;68622;53.128;17.966;2023-06-19T12:13:03;12.60;;;7.90;;
76136;SDS011;68622;53.128;17.966;2023-06-19T12:15:29;11.90;;;8.40;;
76136;SDS011;68622;53.128;17.966;2023-06-19T12:17:56;9.90;;;6.90;;
76136;SDS011;68622;53.128;17.966;2023-06-19T12:20:24;11.80;;;8.00;;
76136;SDS011;68622;53.128;17.966;2023-06-19T12:22:51;8.90;;;7.50;;
76136;SDS011;68622;53.128;17.966;2023-06-19T12:25:18;9.80;;;7.80;;
76136;SDS011;68622;53.128;17.966;2023-06-19T12:27:44;9.40;;;7.60;;
76136;SDS011;68622;53.128;17.966;2023-06-19T12:30:21;8.90;;;6.60;;
76136;SDS011;68622;53.128;17.966;2023-06-19T12:32:52;9.20;;;7.20;;
76136;SDS011;68622;53.128;17.966;2023-06-19T12:35:18;9.70;;;6.80;;
76136;SDS011;68622;53.128;17.966;2023-06-19T12:37:45;9.30;;;6.60;;
76136;SDS011;68622;53.128;17.966;2023-06-19T12:40:12;12.50;;;7.40;;
76136;SDS011;68622;53.128;17.966;2023-06-19T12:42:39;9.70;;;7.20;;
76136;SDS011;68622;53.128;17.966;2023-06-19T12:45:06;9.30;;;6.90;;
76136;SDS011;68622;53.128;17.966;2023-06-19T12:47:36;11.60;;;7.20;;
76136;SDS011;68622;53.128;17.966;2023-06-19T12:50:04;9.60;;;7.40;;
76136;SDS011;68622;53.128;17.966;2023-06-19T12:52:31;13.50;;;7.80;;
76136;SDS011;68622;53.128;17.966;2023-06-19T12:54:58;12.10;;;8.00;;
76136;SDS011;68622;53.128;17.966;2023-06-19T12:57:27;10.80;;;6.40;;
76136;SDS011;68622;53.128;17.966;2023-06-19T12:59:54;9.70;;;7.70;;
76136;SDS011;68622;53.128;17.966;2023-06-19T13:02:20;10.20;;;7.50;;
76136;SDS011;68622;53.128;17.966;2023-06-19T13:04:47;12.80;;;8.00;;
76136;SDS011;68622;53.128;17.966;2023-06-19T13:07:14;10.70;;;7.70;;
76136;SDS011;68622;53.128;17.966;2023-06-19T13:09:42;12.20;;;7.90;;
76136;SDS011;68622;53.128;17.966;2023-06-19T13:12:09;11.50;;;7.60;;
76136;SDS011;68622;53.128;17.966;2023-06-19T13:14:36;13.20;;;8.80;;
76136;SDS011;68622;53.128;17.966;2023-06-19T13:17:04;9.60;;;6.10;;
76136;SDS011;68622;53.128;17.966;2023-06-19T13:19:30;11.00;;;8.20;;
76136;SDS011;68622;53.128;17.966;2023-06-19T13:21:57;10.60;;;7.80;;
76136;SDS011;68622;53.128;17.966;2023-06-19T13:24:24;11.90;;;7.90;;
76136;SDS011;68622;53.128;17.966;2023-06-19T13:26:53;26.50;;;19.00;;
76136;SDS011;68622;53.128;17.966;2023-06-19T13:29:21;12.20;;;9.00;;
76136;SDS011;68622;53.128;17.966;2023-06-19T13:31:47;12.00;;;8.30;;
76136;SDS011;68622;53.128;17.966;2023-06-19T13:34:14;11.10;;;7.60;;
76136;SDS011;68622;53.128;17.966;2023-06-19T13:36:42;10.10;;;7.80;;
76136;SDS011;68622;53.128;17.966;2023-06-19T13:39:09;10.00;;;6.60;;
76136;SDS011;68622;53.128;17.966;2023-06-19T13:41:37;10.20;;;7.00;;
76136;SDS011;68622;53.128;17.966;2023-06-19T13:44:03;9.50;;;7.10;;
76136;SDS011;68622;53.128;17.966;2023-06-19T13:46:30;10.30;;;7.50;;
76136;SDS011;68622;53.128;17.966;2023-06-19T13:48:58;10.00;;;7.60;;
76136;SDS011;68622;53.128;17.966;2023-06-19T13:51:24;11.30;;;8.30;;
76136;SDS011;68622;53.128;17.966;2023-06-19T13:53:52;9.90;;;7.10;;
76136;SDS011;68622;53.128;17.966;2023-06-19T13:56:20;9.50;;;6.90;;
76136;SDS011;68622;53.128;17.966;2023-06-19T13:58:48;9.40;;;7.30;;
76136;SDS011;68622;53.128;17.966;2023-06-19T14:01:16;12.30;;;7.90;;
76136;SDS011;68622;53.128;17.966;2023-06-19T14:03:42;9.20;;;6.40;;
76136;SDS011;68622;53.128;17.966;2023-06-19T14:06:09;9.50;;;6.70;;
76136;SDS011;68622;53.128;17.966;2023-06-19T14:08:36;10.30;;;6.60;;
76136;SDS011;68622;53.128;17.966;2023-06-19T14:11:02;8.70;;;6.00;;
76136;SDS011;68622;53.128;17.966;2023-06-19T14:13:29;8.60;;;5.90;;
76136;SDS011;68622;53.128;17.966;2023-06-19T14:15:55;10.20;;;6.60;;
76136;SDS011;68622;53.128;17.966;2023-06-19T14:18:22;9.80;;;7.10;;
76136;SDS011;68622;53.128;17.966;2023-06-19T14:20:49;9.80;;;6.90;;
76136;SDS011;68622;53.128;17.966;2023-06-19T14:23:16;11.70;;;8.50;;
76136;SDS011;68622;53.128;17.966;2023-06-19T14:25:43;13.50;;;9.10;;
76136;SDS011;68622;53.128;17.966;2023-06-19T14:28:10;11.10;;;7.90;;
76136;SDS011;68622;53.128;17.966;2023-06-19T14:30:37;15.00;;;10.50;;